sensor_id;sensor_type;location;lat;lon;timestamp;temperature;humidity
9057;DHT22;4563;54.756;9.400;2024-01-10T00:01:00;2.60;76.40
9057;DHT22;4563;54.756;9.400;2024-01-10T00:03:28;2.60;76.40
9057;DHT22;4563;54.756;9.400;2024-01-10T00:05:55;2.60;76.40
9057;DHT22;4563;54.756;9.400;2024-01-10T00:08:23;2.60;76.40
9057;DHT22;4563;54.756;9.400;2024-01-10T00:10:50;2.60;76.40
9057;DHT22;4563;54.756;9.400;2024-01-10T00:13:17;2.60;76.50
9057;DHT22;4563;54.756;9.400;2024-01-10T00:15:44;2.60;76.40
9057;DHT22;4563;54.756;9.400;2024-01-10T00:18:11;2.60;76.40
9057;DHT22;4563;54.756;9.400;2024-01-10T00:20:37;2.60;77.20
9057;DHT22;4563;54.756;9.400;2024-01-10T00:23:05;2.60;76.50
9057;DHT22;4563;54.756;9.400;2024-01-10T00:25:34;2.60;76.50
9057;DHT22;4563;54.756;9.400;2024-01-10T00:28:01;2.60;76.60
9057;DHT22;4563;54.756;9.400;2024-01-10T00:30:28;2.60;76.60
9057;DHT22;4563;54.756;9.400;2024-01-10T00:32:54;2.60;76.50
9057;DHT22;4563;54.756;9.400;2024-01-10T00:35:21;2.60;76.60
9057;DHT22;4563;54.756;9.400;2024-01-10T00:37:48;2.60;76.60
9057;DHT22;4563;54.756;9.400;2024-01-10T00:40:15;2.60;76.60
9057;DHT22;4563;54.756;9.400;2024-01-10T00:42:43;2.60;76.60
9057;DHT22;4563;54.756;9.400;2024-01-10T00:45:10;2.60;76.60
9057;DHT22;4563;54.756;9.400;2024-01-10T00:47:37;2.60;76.60
9057;DHT22;4563;54.756;9.400;2024-01-10T00:50:04;2.60;76.70
9057;DHT22;4563;54.756;9.400;2024-01-10T00:52:31;2.60;76.70
9057;DHT22;4563;54.756;9.400;2024-01-10T00:54:58;2.60;76.70
9057;DHT22;4563;54.756;9.400;2024-01-10T00:57:25;2.60;76.70
9057;DHT22;4563;54.756;9.400;2024-01-10T00:59:53;2.60;76.80
9057;DHT22;4563;54.756;9.400;2024-01-10T01:02:20;2.60;76.80
9057;DHT22;4563;54.756;9.400;2024-01-10T01:04:46;2.60;76.70
9057;DHT22;4563;54.756;9.400;2024-01-10T01:07:13;2.60;76.70
9057;DHT22;4563;54.756;9.400;2024-01-10T01:09:40;2.60;76.70
9057;DHT22;4563;54.756;9.400;2024-01-10T01:12:07;2.60;76.70
9057;DHT22;4563;54.756;9.400;2024-01-10T01:14:33;2.60;76.70
9057;DHT22;4563;54.756;9.400;2024-01-10T01:17:02;2.50;76.60
9057;DHT22;4563;54.756;9.400;2024-01-10T01:19:29;2.60;76.70
9057;DHT22;4563;54.756;9.400;2024-01-10T01:21:55;2.60;76.70
9057;DHT22;4563;54.756;9.400;2024-01-10T01:24:22;2.60;76.70
9057;DHT22;4563;54.756;9.400;2024-01-10T01:26:49;2.50;76.70
9057;DHT22;4563;54.756;9.400;2024-01-10T01:29:16;2.60;76.80
9057;DHT22;4563;54.756;9.400;2024-01-10T01:31:43;2.50;76.70
9057;DHT22;4563;54.756;9.400;2024-01-10T01:34:11;2.50;76.70
9057;DHT22;4563;54.756;9.400;2024-01-10T01:36:39;2.50;76.60
9057;DHT22;4563;54.756;9.400;2024-01-10T01:39:05;2.50;76.60
9057;DHT22;4563;54.756;9.400;2024-01-10T01:41:32;2.60;76.80
9057;DHT22;4563;54.756;9.400;2024-01-10T01:43:59;2.60;76.80
9057;DHT22;4563;54.756;9.400;2024-01-10T01:46:26;2.50;76.70
9057;DHT22;4563;54.756;9.400;2024-01-10T01:48:53;2.50;76.70
9057;DHT22;4563;54.756;9.400;2024-01-10T01:51:22;2.50;76.70
9057;DHT22;4563;54.756;9.400;2024-01-10T01:53:50;2.50;76.70
9057;DHT22;4563;54.756;9.400;2024-01-10T01:56:17;2.60;76.80
9057;DHT22;4563;54.756;9.400;2024-01-10T01:58:45;2.50;76.80
9057;DHT22;4563;54.756;9.400;2024-01-10T02:01:12;2.60;76.80
9057;DHT22;4563;54.756;9.400;2024-01-10T02:03:39;2.50;76.80
9057;DHT22;4563;54.756;9.400;2024-01-10T02:06:06;2.60;76.90
9057;DHT22;4563;54.756;9.400;2024-01-10T02:08:35;2.60;76.90
9057;DHT22;4563;54.756;9.400;2024-01-10T02:11:02;2.60;76.90
9057;DHT22;4563;54.756;9.400;2024-01-10T02:13:30;2.60;76.90
9057;DHT22;4563;54.756;9.400;2024-01-10T02:15:58;2.60;77.00
9057;DHT22;4563;54.756;9.400;2024-01-10T02:18:25;2.60;76.90
9057;DHT22;4563;54.756;9.400;2024-01-10T02:20:52;2.60;77.00
9057;DHT22;4563;54.756;9.400;2024-01-10T02:23:19;2.60;77.70
9057;DHT22;4563;54.756;9.400;2024-01-10T02:25:47;2.60;77.00
9057;DHT22;4563;54.756;9.400;2024-01-10T02:28:13;2.60;77.00
9057;DHT22;4563;54.756;9.400;2024-01-10T02:30:40;2.50;76.90
9057;DHT22;4563;54.756;9.400;2024-01-10T02:33:07;2.60;77.00
9057;DHT22;4563;54.756;9.400;2024-01-10T02:35:34;2.60;77.10
9057;DHT22;4563;54.756;9.400;2024-01-10T02:38:02;2.60;77.10
9057;DHT22;4563;54.756;9.400;2024-01-10T02:40:38;2.60;77.10
9057;DHT22;4563;54.756;9.400;2024-01-10T02:43:06;2.60;77.00
9057;DHT22;4563;54.756;9.400;2024-01-10T02:45:33;2.60;77.10
9057;DHT22;4563;54.756;9.400;2024-01-10T02:48:01;2.60;77.80
9057;DHT22;4563;54.756;9.400;2024-01-10T02:50:28;2.60;77.20
9057;DHT22;4563;54.756;9.400;2024-01-10T02:52:54;2.60;77.10
9057;DHT22;4563;54.756;9.400;2024-01-10T02:55:21;2.60;77.20
9057;DHT22;4563;54.756;9.400;2024-01-10T02:58:05;2.60;77.20
9057;DHT22;4563;54.756;9.400;2024-01-10T03:00:32;2.60;77.20
9057;DHT22;4563;54.756;9.400;2024-01-10T03:02:59;2.60;77.20
9057;DHT22;4563;54.756;9.400;2024-01-10T03:05:35;2.60;77.20
9057;DHT22;4563;54.756;9.400;2024-01-10T03:08:02;2.60;77.20
9057;DHT22;4563;54.756;9.400;2024-01-10T03:10:35;2.60;77.20
9057;DHT22;4563;54.756;9.400;2024-01-10T03:13:01;2.60;77.20
9057;DHT22;4563;54.756;9.400;2024-01-10T03:15:30;2.60;77.20
9057;DHT22;4563;54.756;9.400;2024-01-10T03:17:57;2.60;77.20
9057;DHT22;4563;54.756;9.400;2024-01-10T03:20:24;2.60;77.20
9057;DHT22;4563;54.756;9.400;2024-01-10T03:22:51;2.60;77.20
9057;DHT22;4563;54.756;9.400;2024-01-10T03:25:20;2.60;77.20
9057;DHT22;4563;54.756;9.400;2024-01-10T03:27:47;2.60;77.20
9057;DHT22;4563;54.756;9.400;2024-01-10T03:30:14;2.60;77.20
9057;DHT22;4563;54.756;9.400;2024-01-10T03:32:45;2.60;77.20
9057;DHT22;4563;54.756;9.400;2024-01-10T03:35:11;2.60;77.20
9057;DHT22;4563;54.756;9.400;2024-01-10T03:37:50;2.60;77.20
9057;DHT22;4563;54.756;9.400;2024-01-10T03:40:18;2.60;77.30
9057;DHT22;4563;54.756;9.400;2024-01-10T03:42:45;2.60;77.20
9057;DHT22;4563;54.756;9.400;2024-01-10T03:45:12;2.60;77.30
9057;DHT22;4563;54.756;9.400;2024-01-10T03:47:42;2.60;77.20
9057;DHT22;4563;54.756;9.400;2024-01-10T03:50:11;2.60;77.20
9057;DHT22;4563;54.756;9.400;2024-01-10T03:52:37;2.60;77.20
9057;DHT22;4563;54.756;9.400;2024-01-10T03:55:04;2.70;77.30
9057;DHT22;4563;54.756;9.400;2024-01-10T03:57:31;2.60;77.30
9057;DHT22;4563;54.756;9.400;2024-01-10T03:59:58;2.60;77.30
9057;DHT22;4563;54.756;9.400;2024-01-10T04:02:25;2.70;77.40
9057;DHT22;4563;54.756;9.400;2024-01-10T04:04:51;2.60;77.30
9057;DHT22;4563;54.756;9.400;2024-01-10T04:07:21;2.70;77.40
9057;DHT22;4563;54.756;9.400;2024-01-10T04:09:48;2.70;77.40
9057;DHT22;4563;54.756;9.400;2024-01-10T04:12:15;2.70;77.40
9057;DHT22;4563;54.756;9.400;2024-01-10T04:14:41;2.70;77.40
9057;DHT22;4563;54.756;9.400;2024-01-10T04:17:08;2.60;77.30
9057;DHT22;4563;54.756;9.400;2024-01-10T04:19:35;2.70;77.40
9057;DHT22;4563;54.756;9.400;2024-01-10T04:22:02;2.70;77.40
9057;DHT22;4563;54.756;9.400;2024-01-10T04:24:33;2.70;77.90
9057;DHT22;4563;54.756;9.400;2024-01-10T04:27:00;2.70;77.40
9057;DHT22;4563;54.756;9.400;2024-01-10T04:29:26;2.70;77.50
9057;DHT22;4563;54.756;9.400;2024-01-10T04:31:53;2.70;77.50
9057;DHT22;4563;54.756;9.400;2024-01-10T04:34:20;2.70;77.50
9057;DHT22;4563;54.756;9.400;2024-01-10T04:36:48;2.70;77.50
9057;DHT22;4563;54.756;9.400;2024-01-10T04:39:15;2.80;77.60
9057;DHT22;4563;54.756;9.400;2024-01-10T04:41:43;2.80;77.70
9057;DHT22;4563;54.756;9.400;2024-01-10T04:44:10;2.80;77.70
9057;DHT22;4563;54.756;9.400;2024-01-10T04:46:36;2.80;77.70
9057;DHT22;4563;54.756;9.400;2024-01-10T04:49:03;2.80;78.40
9057;DHT22;4563;54.756;9.400;2024-01-10T04:51:30;2.80;77.70
9057;DHT22;4563;54.756;9.400;2024-01-10T04:53:57;2.80;77.70
9057;DHT22;4563;54.756;9.400;2024-01-10T04:56:23;2.80;77.70
9057;DHT22;4563;54.756;9.400;2024-01-10T04:59:04;2.80;77.70
9057;DHT22;4563;54.756;9.400;2024-01-10T05:01:32;2.80;77.70
9057;DHT22;4563;54.756;9.400;2024-01-10T05:03:59;2.80;77.80
9057;DHT22;4563;54.756;9.400;2024-01-10T05:06:26;2.80;77.80
9057;DHT22;4563;54.756;9.400;2024-01-10T05:08:55;2.80;77.80
9057;DHT22;4563;54.756;9.400;2024-01-10T05:11:24;2.80;77.80
9057;DHT22;4563;54.756;9.400;2024-01-10T05:13:51;2.90;77.90
9057;DHT22;4563;54.756;9.400;2024-01-10T05:16:23;2.90;77.90
9057;DHT22;4563;54.756;9.400;2024-01-10T05:19:08;2.90;78.00
9057;DHT22;4563;54.756;9.400;2024-01-10T05:21:35;2.90;77.90
9057;DHT22;4563;54.756;9.400;2024-01-10T05:24:02;2.90;78.00
9057;DHT22;4563;54.756;9.400;2024-01-10T05:26:28;2.90;78.00
9057;DHT22;4563;54.756;9.400;2024-01-10T05:28:55;2.90;78.00
9057;DHT22;4563;54.756;9.400;2024-01-10T05:31:24;2.90;78.00
9057;DHT22;4563;54.756;9.400;2024-01-10T05:33:50;3.00;78.10
9057;DHT22;4563;54.756;9.400;2024-01-10T05:36:21;2.90;78.10
9057;DHT22;4563;54.756;9.400;2024-01-10T05:38:48;3.00;78.20
9057;DHT22;4563;54.756;9.400;2024-01-10T05:41:14;3.00;78.10
9057;DHT22;4563;54.756;9.400;2024-01-10T05:43:41;3.00;78.10
9057;DHT22;4563;54.756;9.400;2024-01-10T05:46:09;3.00;78.20
9057;DHT22;4563;54.756;9.400;2024-01-10T05:48:37;3.00;78.10
9057;DHT22;4563;54.756;9.400;2024-01-10T05:51:04;3.10;78.20
9057;DHT22;4563;54.756;9.400;2024-01-10T05:53:40;3.10;78.20
9057;DHT22;4563;54.756;9.400;2024-01-10T05:56:07;3.10;78.20
9057;DHT22;4563;54.756;9.400;2024-01-10T05:58:34;3.10;78.20
9057;DHT22;4563;54.756;9.400;2024-01-10T06:01:01;3.10;78.30
9057;DHT22;4563;54.756;9.400;2024-01-10T06:03:27;3.10;78.30
9057;DHT22;4563;54.756;9.400;2024-01-10T06:05:55;3.10;78.20
9057;DHT22;4563;54.756;9.400;2024-01-10T06:08:22;3.10;78.30
9057;DHT22;4563;54.756;9.400;2024-01-10T06:10:51;3.10;78.30
9057;DHT22;4563;54.756;9.400;2024-01-10T06:13:18;3.20;78.40
9057;DHT22;4563;54.756;9.400;2024-01-10T06:15:44;3.10;78.30
9057;DHT22;4563;54.756;9.400;2024-01-10T06:18:14;3.20;79.20
9057;DHT22;4563;54.756;9.400;2024-01-10T06:20:41;3.20;78.40
9057;DHT22;4563;54.756;9.400;2024-01-10T06:23:09;3.20;78.40
9057;DHT22;4563;54.756;9.400;2024-01-10T06:25:36;3.20;78.40
9057;DHT22;4563;54.756;9.400;2024-01-10T06:28:03;3.20;78.40
9057;DHT22;4563;54.756;9.400;2024-01-10T06:30:30;3.20;78.40
9057;DHT22;4563;54.756;9.400;2024-01-10T06:32:57;3.20;78.40
9057;DHT22;4563;54.756;9.400;2024-01-10T06:35:24;3.20;78.40
9057;DHT22;4563;54.756;9.400;2024-01-10T06:37:50;3.20;78.50
9057;DHT22;4563;54.756;9.400;2024-01-10T06:40:18;3.20;78.40
9057;DHT22;4563;54.756;9.400;2024-01-10T06:42:47;3.20;78.50
9057;DHT22;4563;54.756;9.400;2024-01-10T06:45:14;3.20;78.50
9057;DHT22;4563;54.756;9.400;2024-01-10T06:47:41;3.20;78.50
9057;DHT22;4563;54.756;9.400;2024-01-10T06:50:08;3.20;78.50
9057;DHT22;4563;54.756;9.400;2024-01-10T06:52:35;3.20;78.70
9057;DHT22;4563;54.756;9.400;2024-01-10T06:55:03;3.20;78.60
9057;DHT22;4563;54.756;9.400;2024-01-10T06:57:31;3.20;78.60
9057;DHT22;4563;54.756;9.400;2024-01-10T07:00:01;3.20;78.60
9057;DHT22;4563;54.756;9.400;2024-01-10T07:02:32;3.30;78.70
9057;DHT22;4563;54.756;9.400;2024-01-10T07:05:01;3.20;78.70
9057;DHT22;4563;54.756;9.400;2024-01-10T07:07:28;3.20;78.60
9057;DHT22;4563;54.756;9.400;2024-01-10T07:09:54;3.30;78.70
9057;DHT22;4563;54.756;9.400;2024-01-10T07:12:21;3.30;78.80
9057;DHT22;4563;54.756;9.400;2024-01-10T07:14:50;3.30;78.80
9057;DHT22;4563;54.756;9.400;2024-01-10T07:17:16;3.30;78.70
9057;DHT22;4563;54.756;9.400;2024-01-10T07:19:43;3.20;78.70
9057;DHT22;4563;54.756;9.400;2024-01-10T07:22:11;3.20;78.70
9057;DHT22;4563;54.756;9.400;2024-01-10T07:24:38;3.20;78.70
9057;DHT22;4563;54.756;9.400;2024-01-10T07:27:05;3.20;78.70
9057;DHT22;4563;54.756;9.400;2024-01-10T07:29:32;3.20;78.70
9057;DHT22;4563;54.756;9.400;2024-01-10T07:32:00;3.20;78.70
9057;DHT22;4563;54.756;9.400;2024-01-10T07:34:27;3.20;78.70
9057;DHT22;4563;54.756;9.400;2024-01-10T07:36:53;3.20;78.70
9057;DHT22;4563;54.756;9.400;2024-01-10T07:39:20;3.10;78.60
9057;DHT22;4563;54.756;9.400;2024-01-10T07:41:47;3.10;78.60
9057;DHT22;4563;54.756;9.400;2024-01-10T07:44:15;3.10;78.60
9057;DHT22;4563;54.756;9.400;2024-01-10T07:46:42;3.10;79.40
9057;DHT22;4563;54.756;9.400;2024-01-10T07:49:10;3.10;78.70
9057;DHT22;4563;54.756;9.400;2024-01-10T07:51:37;3.10;79.40
9057;DHT22;4563;54.756;9.400;2024-01-10T07:54:04;3.10;78.70
9057;DHT22;4563;54.756;9.400;2024-01-10T07:56:31;3.10;78.70
9057;DHT22;4563;54.756;9.400;2024-01-10T07:58:57;3.00;78.60
9057;DHT22;4563;54.756;9.400;2024-01-10T08:01:24;3.00;78.60
9057;DHT22;4563;54.756;9.400;2024-01-10T08:03:51;3.00;78.60
9057;DHT22;4563;54.756;9.400;2024-01-10T08:06:19;3.00;78.60
9057;DHT22;4563;54.756;9.400;2024-01-10T08:08:46;3.00;78.50
9057;DHT22;4563;54.756;9.400;2024-01-10T08:11:13;3.00;78.60
9057;DHT22;4563;54.756;9.400;2024-01-10T08:13:40;3.00;78.50
9057;DHT22;4563;54.756;9.400;2024-01-10T08:16:07;3.00;78.50
9057;DHT22;4563;54.756;9.400;2024-01-10T08:18:34;3.00;78.50
9057;DHT22;4563;54.756;9.400;2024-01-10T08:21:01;3.00;78.50
9057;DHT22;4563;54.756;9.400;2024-01-10T08:23:31;3.00;78.50
9057;DHT22;4563;54.756;9.400;2024-01-10T08:25:57;3.00;78.50
9057;DHT22;4563;54.756;9.400;2024-01-10T08:28:24;3.00;78.50
9057;DHT22;4563;54.756;9.400;2024-01-10T08:30:52;3.00;78.50
9057;DHT22;4563;54.756;9.400;2024-01-10T08:33:18;3.00;78.50
9057;DHT22;4563;54.756;9.400;2024-01-10T08:35:45;2.90;78.30
9057;DHT22;4563;54.756;9.400;2024-01-10T08:38:12;2.90;78.30
9057;DHT22;4563;54.756;9.400;2024-01-10T08:40:40;2.90;78.30
9057;DHT22;4563;54.756;9.400;2024-01-10T08:43:07;2.90;78.30
9057;DHT22;4563;54.756;9.400;2024-01-10T08:45:34;2.90;78.30
9057;DHT22;4563;54.756;9.400;2024-01-10T08:48:01;2.90;78.30
9057;DHT22;4563;54.756;9.400;2024-01-10T08:50:28;2.90;78.20
9057;DHT22;4563;54.756;9.400;2024-01-10T08:52:54;2.90;78.20
9057;DHT22;4563;54.756;9.400;2024-01-10T08:55:21;2.90;78.20
9057;DHT22;4563;54.756;9.400;2024-01-10T08:57:50;2.90;78.20
9057;DHT22;4563;54.756;9.400;2024-01-10T09:00:17;2.90;78.20
9057;DHT22;4563;54.756;9.400;2024-01-10T09:02:43;2.90;78.10
9057;DHT22;4563;54.756;9.400;2024-01-10T09:05:10;2.90;78.10
9057;DHT22;4563;54.756;9.400;2024-01-10T09:07:37;2.90;78.10
9057;DHT22;4563;54.756;9.400;2024-01-10T09:10:05;2.90;78.10
9057;DHT22;4563;54.756;9.400;2024-01-10T09:12:33;2.90;78.10
9057;DHT22;4563;54.756;9.400;2024-01-10T09:15:01;2.90;78.00
9057;DHT22;4563;54.756;9.400;2024-01-10T09:17:28;2.90;78.00
9057;DHT22;4563;54.756;9.400;2024-01-10T09:19:55;2.90;78.00
9057;DHT22;4563;54.756;9.400;2024-01-10T09:22:21;2.90;78.00
9057;DHT22;4563;54.756;9.400;2024-01-10T09:24:48;2.90;78.00
9057;DHT22;4563;54.756;9.400;2024-01-10T09:27:15;2.90;78.00
9057;DHT22;4563;54.756;9.400;2024-01-10T09:29:42;2.90;78.00
9057;DHT22;4563;54.756;9.400;2024-01-10T09:32:10;2.90;78.00
9057;DHT22;4563;54.756;9.400;2024-01-10T09:34:37;3.00;78.00
9057;DHT22;4563;54.756;9.400;2024-01-10T09:37:04;3.00;78.00
9057;DHT22;4563;54.756;9.400;2024-01-10T09:39:31;3.00;78.10
9057;DHT22;4563;54.756;9.400;2024-01-10T09:41:58;3.00;78.00
9057;DHT22;4563;54.756;9.400;2024-01-10T09:44:25;3.00;78.10
9057;DHT22;4563;54.756;9.400;2024-01-10T09:46:53;3.00;78.00
9057;DHT22;4563;54.756;9.400;2024-01-10T09:49:22;3.00;78.00
9057;DHT22;4563;54.756;9.400;2024-01-10T09:51:49;3.00;78.00
9057;DHT22;4563;54.756;9.400;2024-01-10T09:54:16;3.00;78.00
9057;DHT22;4563;54.756;9.400;2024-01-10T09:56:45;3.00;78.10
9057;DHT22;4563;54.756;9.400;2024-01-10T09:59:12;3.00;78.00
9057;DHT22;4563;54.756;9.400;2024-01-10T10:01:39;3.00;78.00
9057;DHT22;4563;54.756;9.400;2024-01-10T10:04:07;3.00;78.00
9057;DHT22;4563;54.756;9.400;2024-01-10T10:06:36;3.00;78.00
9057;DHT22;4563;54.756;9.400;2024-01-10T10:09:03;3.00;78.00
9057;DHT22;4563;54.756;9.400;2024-01-10T10:11:30;3.00;78.00
9057;DHT22;4563;54.756;9.400;2024-01-10T10:13:59;3.00;78.10
9057;DHT22;4563;54.756;9.400;2024-01-10T10:16:39;3.10;78.20
9057;DHT22;4563;54.756;9.400;2024-01-10T10:19:06;3.10;78.20
9057;DHT22;4563;54.756;9.400;2024-01-10T10:21:36;3.10;78.10
9057;DHT22;4563;54.756;9.400;2024-01-10T10:24:03;3.10;78.20
9057;DHT22;4563;54.756;9.400;2024-01-10T10:26:32;3.10;78.20
9057;DHT22;4563;54.756;9.400;2024-01-10T10:29:00;3.10;78.20
9057;DHT22;4563;54.756;9.400;2024-01-10T10:31:27;3.10;78.20
9057;DHT22;4563;54.756;9.400;2024-01-10T10:33:54;3.10;78.20
9057;DHT22;4563;54.756;9.400;2024-01-10T10:36:21;3.10;78.20
9057;DHT22;4563;54.756;9.400;2024-01-10T10:38:49;3.10;78.20
9057;DHT22;4563;54.756;9.400;2024-01-10T10:41:19;3.10;78.20
9057;DHT22;4563;54.756;9.400;2024-01-10T10:43:46;3.10;78.20
9057;DHT22;4563;54.756;9.400;2024-01-10T10:46:13;3.20;78.40
9057;DHT22;4563;54.756;9.400;2024-01-10T10:48:40;3.20;78.40
9057;DHT22;4563;54.756;9.400;2024-01-10T10:51:09;3.20;78.30
9057;DHT22;4563;54.756;9.400;2024-01-10T10:53:38;3.20;78.40
9057;DHT22;4563;54.756;9.400;2024-01-10T10:56:07;3.20;78.40
9057;DHT22;4563;54.756;9.400;2024-01-10T10:58:38;3.20;78.30
9057;DHT22;4563;54.756;9.400;2024-01-10T11:01:06;3.20;78.30
9057;DHT22;4563;54.756;9.400;2024-01-10T11:03:35;3.20;78.30
9057;DHT22;4563;54.756;9.400;2024-01-10T11:06:04;3.30;78.50
9057;DHT22;4563;54.756;9.400;2024-01-10T11:08:34;3.30;78.50
9057;DHT22;4563;54.756;9.400;2024-01-10T11:11:03;3.30;78.40
9057;DHT22;4563;54.756;9.400;2024-01-10T11:13:42;3.30;78.40
9057;DHT22;4563;54.756;9.400;2024-01-10T11:16:52;3.30;78.40
9057;DHT22;4563;54.756;9.400;2024-01-10T11:22:43;3.30;78.50
9057;DHT22;4563;54.756;9.400;2024-01-10T11:25:12;3.30;78.50
9057;DHT22;4563;54.756;9.400;2024-01-10T11:27:39;3.30;78.50
9057;DHT22;4563;54.756;9.400;2024-01-10T11:30:08;3.30;78.40
9057;DHT22;4563;54.756;9.400;2024-01-10T11:32:35;3.40;78.50
9057;DHT22;4563;54.756;9.400;2024-01-10T11:35:05;3.40;78.60
9057;DHT22;4563;54.756;9.400;2024-01-10T11:37:43;3.40;78.60
9057;DHT22;4563;54.756;9.400;2024-01-10T11:40:11;3.40;78.60
9057;DHT22;4563;54.756;9.400;2024-01-10T11:42:42;3.40;78.60
9057;DHT22;4563;54.756;9.400;2024-01-10T11:47:59;3.40;78.60
9057;DHT22;4563;54.756;9.400;2024-01-10T11:50:26;3.40;78.60
9057;DHT22;4563;54.756;9.400;2024-01-10T11:52:54;3.40;78.60
9057;DHT22;4563;54.756;9.400;2024-01-10T11:55:47;3.40;78.60
9057;DHT22;4563;54.756;9.400;2024-01-10T11:58:16;3.50;78.80
9057;DHT22;4563;54.756;9.400;2024-01-10T12:00:46;3.50;78.80
9057;DHT22;4563;54.756;9.400;2024-01-10T12:03:14;3.50;78.70
9057;DHT22;4563;54.756;9.400;2024-01-10T12:05:40;3.50;78.70
9057;DHT22;4563;54.756;9.400;2024-01-10T12:08:08;3.50;78.80
9057;DHT22;4563;54.756;9.400;2024-01-10T12:10:35;3.50;78.70
9057;DHT22;4563;54.756;9.400;2024-01-10T12:13:03;3.50;78.80
9057;DHT22;4563;54.756;9.400;2024-01-10T12:15:30;3.50;78.80
9057;DHT22;4563;54.756;9.400;2024-01-10T12:17:58;3.50;78.80
9057;DHT22;4563;54.756;9.400;2024-01-10T12:20:25;3.50;78.80
9057;DHT22;4563;54.756;9.400;2024-01-10T12:22:52;3.60;78.80
9057;DHT22;4563;54.756;9.400;2024-01-10T12:25:18;3.60;78.90
9057;DHT22;4563;54.756;9.400;2024-01-10T12:27:45;3.60;78.90
9057;DHT22;4563;54.756;9.400;2024-01-10T12:30:13;3.60;78.90
9057;DHT22;4563;54.756;9.400;2024-01-10T12:32:39;3.60;78.90
9057;DHT22;4563;54.756;9.400;2024-01-10T12:35:08;3.60;78.90
9057;DHT22;4563;54.756;9.400;2024-01-10T12:37:35;3.60;78.90
9057;DHT22;4563;54.756;9.400;2024-01-10T12:40:02;3.60;78.90
9057;DHT22;4563;54.756;9.400;2024-01-10T12:42:30;3.60;78.90
9057;DHT22;4563;54.756;9.400;2024-01-10T12:44:57;3.60;78.90
9057;DHT22;4563;54.756;9.400;2024-01-10T12:47:25;3.60;78.90
9057;DHT22;4563;54.756;9.400;2024-01-10T12:49:51;3.70;79.00
9057;DHT22;4563;54.756;9.400;2024-01-10T12:52:20;3.70;79.00
9057;DHT22;4563;54.756;9.400;2024-01-10T12:54:47;3.60;78.90
9057;DHT22;4563;54.756;9.400;2024-01-10T12:57:14;3.70;79.10
9057;DHT22;4563;54.756;9.400;2024-01-10T12:59:41;3.70;79.10
9057;DHT22;4563;54.756;9.400;2024-01-10T13:02:08;3.70;79.10
9057;DHT22;4563;54.756;9.400;2024-01-10T13:04:35;3.70;79.80
9057;DHT22;4563;54.756;9.400;2024-01-10T13:07:02;3.70;79.10
9057;DHT22;4563;54.756;9.400;2024-01-10T13:09:30;3.70;79.10
9057;DHT22;4563;54.756;9.400;2024-01-10T13:11:57;3.70;79.10
9057;DHT22;4563;54.756;9.400;2024-01-10T13:14:24;3.70;79.10
9057;DHT22;4563;54.756;9.400;2024-01-10T13:16:51;3.80;79.20
9057;DHT22;4563;54.756;9.400;2024-01-10T13:19:18;3.80;79.20
9057;DHT22;4563;54.756;9.400;2024-01-10T13:21:45;3.80;79.20
9057;DHT22;4563;54.756;9.400;2024-01-10T13:24:11;3.80;79.20
9057;DHT22;4563;54.756;9.400;2024-01-10T13:26:40;3.80;79.20
9057;DHT22;4563;54.756;9.400;2024-01-10T13:29:06;3.80;79.20
9057;DHT22;4563;54.756;9.400;2024-01-10T13:31:33;3.80;79.90
9057;DHT22;4563;54.756;9.400;2024-01-10T13:34:02;3.80;79.20
9057;DHT22;4563;54.756;9.400;2024-01-10T13:36:29;3.80;79.20
9057;DHT22;4563;54.756;9.400;2024-01-10T13:38:56;3.80;79.20
9057;DHT22;4563;54.756;9.400;2024-01-10T13:41:23;3.80;79.20
9057;DHT22;4563;54.756;9.400;2024-01-10T13:43:52;3.80;79.20
9057;DHT22;4563;54.756;9.400;2024-01-10T13:46:19;3.90;79.30
9057;DHT22;4563;54.756;9.400;2024-01-10T13:48:45;3.80;79.20
9057;DHT22;4563;54.756;9.400;2024-01-10T13:51:12;3.90;79.30
9057;DHT22;4563;54.756;9.400;2024-01-10T13:53:39;3.90;79.30
9057;DHT22;4563;54.756;9.400;2024-01-10T13:56:06;3.90;79.40
9057;DHT22;4563;54.756;9.400;2024-01-10T13:58:33;3.90;79.40
9057;DHT22;4563;54.756;9.400;2024-01-10T14:01:01;3.90;79.40
9057;DHT22;4563;54.756;9.400;2024-01-10T14:03:28;3.90;79.40
9057;DHT22;4563;54.756;9.400;2024-01-10T14:05:55;3.90;79.40
9057;DHT22;4563;54.756;9.400;2024-01-10T14:08:22;3.90;79.40
9057;DHT22;4563;54.756;9.400;2024-01-10T14:10:48;3.90;79.30
9057;DHT22;4563;54.756;9.400;2024-01-10T14:13:15;3.90;79.40
9057;DHT22;4563;54.756;9.400;2024-01-10T14:15:42;3.90;79.40
9057;DHT22;4563;54.756;9.400;2024-01-10T14:18:10;3.90;79.40
9057;DHT22;4563;54.756;9.400;2024-01-10T14:20:37;3.90;80.10
9057;DHT22;4563;54.756;9.400;2024-01-10T14:23:04;3.90;79.40
9057;DHT22;4563;54.756;9.400;2024-01-10T14:25:31;3.90;79.40
9057;DHT22;4563;54.756;9.400;2024-01-10T14:27:58;3.90;79.40
9057;DHT22;4563;54.756;9.400;2024-01-10T14:30:26;3.90;79.40
9057;DHT22;4563;54.756;9.400;2024-01-10T14:32:52;3.90;79.40
9057;DHT22;4563;54.756;9.400;2024-01-10T14:35:21;3.90;79.40
9057;DHT22;4563;54.756;9.400;2024-01-10T14:37:48;3.90;79.40
9057;DHT22;4563;54.756;9.400;2024-01-10T14:40:15;3.90;79.40
9057;DHT22;4563;54.756;9.400;2024-01-10T14:42:42;3.90;79.40
9057;DHT22;4563;54.756;9.400;2024-01-10T14:45:09;3.90;79.40
9057;DHT22;4563;54.756;9.400;2024-01-10T14:47:36;3.90;79.40
9057;DHT22;4563;54.756;9.400;2024-01-10T14:50:03;3.90;79.40
9057;DHT22;4563;54.756;9.400;2024-01-10T14:52:31;3.90;79.40
9057;DHT22;4563;54.756;9.400;2024-01-10T14:54:58;3.90;79.40
9057;DHT22;4563;54.756;9.400;2024-01-10T14:57:25;3.90;79.40
9057;DHT22;4563;54.756;9.400;2024-01-10T14:59:52;3.90;79.40
9057;DHT22;4563;54.756;9.400;2024-01-10T15:02:18;3.90;79.40
9057;DHT22;4563;54.756;9.400;2024-01-10T15:04:45;3.90;79.40
9057;DHT22;4563;54.756;9.400;2024-01-10T15:07:12;3.90;79.30
9057;DHT22;4563;54.756;9.400;2024-01-10T15:09:42;3.90;79.40
9057;DHT22;4563;54.756;9.400;2024-01-10T15:12:09;3.90;79.40
9057;DHT22;4563;54.756;9.400;2024-01-10T15:14:36;3.90;79.40
9057;DHT22;4563;54.756;9.400;2024-01-10T15:17:04;3.90;79.40
9057;DHT22;4563;54.756;9.400;2024-01-10T15:19:33;3.90;79.40
9057;DHT22;4563;54.756;9.400;2024-01-10T15:22:00;3.90;79.40
9057;DHT22;4563;54.756;9.400;2024-01-10T15:24:28;3.90;79.30
9057;DHT22;4563;54.756;9.400;2024-01-10T15:26:56;3.90;79.40
9057;DHT22;4563;54.756;9.400;2024-01-10T15:29:27;3.90;79.40
9057;DHT22;4563;54.756;9.400;2024-01-10T15:31:54;3.90;79.30
9057;DHT22;4563;54.756;9.400;2024-01-10T15:34:21;3.90;79.30
9057;DHT22;4563;54.756;9.400;2024-01-10T15:36:49;3.90;79.30
9057;DHT22;4563;54.756;9.400;2024-01-10T15:39:16;3.90;79.30
9057;DHT22;4563;54.756;9.400;2024-01-10T15:41:45;3.90;79.30
9057;DHT22;4563;54.756;9.400;2024-01-10T15:44:13;3.90;79.30
9057;DHT22;4563;54.756;9.400;2024-01-10T15:46:40;3.90;79.30
9057;DHT22;4563;54.756;9.400;2024-01-10T15:49:08;3.90;79.30
9057;DHT22;4563;54.756;9.400;2024-01-10T15:51:35;3.90;79.30
9057;DHT22;4563;54.756;9.400;2024-01-10T15:54:01;3.90;79.30
9057;DHT22;4563;54.756;9.400;2024-01-10T15:56:28;3.90;79.30
9057;DHT22;4563;54.756;9.400;2024-01-10T15:58:55;3.90;79.30
9057;DHT22;4563;54.756;9.400;2024-01-10T16:01:24;3.90;79.30
9057;DHT22;4563;54.756;9.400;2024-01-10T16:03:50;3.90;79.30
9057;DHT22;4563;54.756;9.400;2024-01-10T16:06:19;3.90;80.00
9057;DHT22;4563;54.756;9.400;2024-01-10T16:08:46;3.90;79.30
9057;DHT22;4563;54.756;9.400;2024-01-10T16:11:12;3.90;80.00
9057;DHT22;4563;54.756;9.400;2024-01-10T16:13:39;3.90;79.20
9057;DHT22;4563;54.756;9.400;2024-01-10T16:16:06;3.90;79.30
9057;DHT22;4563;54.756;9.400;2024-01-10T16:18:36;3.90;79.30
9057;DHT22;4563;54.756;9.400;2024-01-10T16:21:03;3.90;79.30
9057;DHT22;4563;54.756;9.400;2024-01-10T16:23:30;3.90;79.20
9057;DHT22;4563;54.756;9.400;2024-01-10T16:25:57;3.90;79.20